Time;durP1;ratioP1;P1;durP2;ratioP2;P2;SDS_P1;SDS_P2;PMS_P1;PMS_P2;Temp;Humidity;BMP_temperature;BMP_pressure;BME280_temperature;BME280_humidity;BME280_pressure;Samples;Min_cycle;Max_cycle;Signal;HPM_P1;HPM_P2
2023/04/18 00:00:25;;;;;;;15.82;12.00;;;6.40;99.90;;;;;;5024137;28;20071;-94
2023/04/18 00:03:00;;;;;;;18.00;12.20;;;6.40;99.90;;;;;;5023530;28;20111;-94
2023/04/18 00:05:26;;;;;;;17.60;12.88;;;6.40;99.90;;;;;;5026355;28;20053;-94
2023/04/18 00:07:52;;;;;;;18.00;11.23;;;6.40;99.90;;;;;;5025106;28;20033;-94
2023/04/18 00:10:17;;;;;;;15.52;11.07;;;6.40;99.90;;;;;;5026659;28;20264;-93
2023/04/18 00:12:43;;;;;;;18.05;11.93;;;6.40;99.90;;;;;;5023203;28;20049;-93
2023/04/18 00:15:10;;;;;;;14.98;11.40;;;6.40;99.90;;;;;;5020510;28;20048;-94
2023/04/18 00:17:39;;;;;;;15.27;10.95;;;6.40;99.90;;;;;;5037022;28;20038;-94
2023/04/18 00:20:09;;;;;;;17.17;11.20;;;6.40;99.90;;;;;;5024699;28;20045;-93
2023/04/18 00:22:35;;;;;;;16.63;11.45;;;6.40;99.90;;;;;;5019270;28;20080;-94
2023/04/18 00:25:01;;;;;;;16.55;11.88;;;6.50;99.90;;;;;;5023168;28;20533;-93
2023/04/18 00:27:26;;;;;;;18.52;11.20;;;6.50;99.90;;;;;;5039326;28;20029;-93
2023/04/18 00:29:53;;;;;;;16.67;11.05;;;6.50;99.90;;;;;;5026319;28;20052;-94
2023/04/18 00:32:19;;;;;;;15.32;11.23;;;6.50;99.90;;;;;;5033999;28;20071;-93
2023/04/18 00:34:45;;;;;;;19.48;11.40;;;6.50;99.90;;;;;;5037039;28;20046;-94
2023/04/18 00:37:11;;;;;;;15.35;10.77;;;6.40;99.90;;;;;;5022943;28;20052;-94
2023/04/18 00:39:39;;;;;;;13.15;10.98;;;6.40;99.90;;;;;;5023268;28;20045;-94
2023/04/18 00:42:05;;;;;;;14.82;11.00;;;6.40;99.90;;;;;;5043945;28;20041;-94
2023/04/18 00:44:31;;;;;;;14.95;9.77;;;6.40;99.90;;;;;;5021522;28;20064;-94
2023/04/18 00:46:57;;;;;;;14.43;10.40;;;6.40;99.90;;;;;;5019581;28;20049;-94
2023/04/18 00:49:23;;;;;;;13.90;9.68;;;6.50;99.90;;;;;;5018388;28;20040;-94
2023/04/18 00:51:50;;;;;;;12.80;9.93;;;6.40;99.90;;;;;;5024087;28;20037;-93
2023/04/18 00:54:20;;;;;;;14.50;10.32;;;6.40;99.90;;;;;;5023315;28;20277;-94
2023/04/18 00:56:46;;;;;;;14.30;9.38;;;6.50;99.90;;;;;;5022538;28;20591;-95
2023/04/18 00:59:12;;;;;;;14.02;9.90;;;6.50;99.90;;;;;;5036526;28;20170;-94
2023/04/18 01:01:42;;;;;;;14.13;9.25;;;6.50;99.90;;;;;;5022037;28;20588;-94
2023/04/18 01:04:08;;;;;;;14.48;9.70;;;6.40;99.90;;;;;;5040770;28;20112;-94
2023/04/18 01:06:35;;;;;;;14.57;9.15;;;6.40;99.90;;;;;;5039640;28;20197;-93
2023/04/18 01:09:01;;;;;;;13.23;9.35;;;6.40;99.90;;;;;;5038590;28;20464;-93
2023/04/18 01:11:27;;;;;;;11.18;8.77;;;6.40;99.90;;;;;;5041345;28;20036;-94
2023/04/18 01:14:06;;;;;;;14.15;9.50;;;6.40;99.90;;;;;;5018875;28;20109;-94
2023/04/18 01:16:32;;;;;;;12.52;9.02;;;6.40;99.90;;;;;;5038892;28;20033;-93
2023/04/18 01:19:11;;;;;;;13.85;9.63;;;6.40;99.90;;;;;;5038259;28;20061;-94
2023/04/18 01:21:40;;;;;;;15.57;9.40;;;6.40;99.90;;;;;;5035997;28;20115;-94
2023/04/18 01:24:11;;;;;;;13.93;10.30;;;6.40;99.90;;;;;;5020689;28;20037;-93
2023/04/18 01:26:37;;;;;;;14.65;10.80;;;6.30;99.90;;;;;;5023572;28;20469;-94
2023/04/18 01:29:03;;;;;;;14.43;10.20;;;6.40;99.90;;;;;;5041923;28;20421;-94
2023/04/18 01:31:29;;;;;;;13.95;10.27;;;6.40;99.90;;;;;;5023879;28;20104;-94
2023/04/18 01:33:55;;;;;;;14.63;10.15;;;6.40;99.90;;;;;;5023581;28;20124;-94
2023/04/18 01:36:21;;;;;;;14.68;10.48;;;6.40;99.90;;;;;;5024365;28;20393;-94
2023/04/18 01:38:46;;;;;;;15.73;10.85;;;6.30;99.90;;;;;;5020947;28;20042;-93
2023/04/18 01:41:12;;;;;;;17.35;10.68;;;6.40;99.90;;;;;;5020112;28;20029;-93
2023/04/18 01:43:38;;;;;;;14.63;10.93;;;6.30;99.90;;;;;;5022719;28;20091;-95
2023/04/18 01:46:04;;;;;;;15.38;11.23;;;6.30;99.90;;;;;;5021027;28;20064;-94
2023/04/18 01:48:30;;;;;;;19.02;11.43;;;6.30;99.90;;;;;;5018656;28;20037;-94
2023/04/18 01:50:55;;;;;;;18.40;11.45;;;6.30;99.90;;;;;;5035318;28;20124;-93
2023/04/18 01:53:22;;;;;;;16.27;10.80;;;6.40;99.90;;;;;;5042364;28;20047;-94
2023/04/18 01:55:49;;;;;;;14.93;10.55;;;6.40;99.90;;;;;;5020943;28;20049;-94
2023/04/18 01:58:15;;;;;;;14.82;10.90;;;6.40;99.90;;;;;;5035201;28;20178;-93
2023/04/18 02:00:43;;;;;;;15.73;11.65;;;6.40;99.90;;;;;;5034857;28;20297;-93
2023/04/18 02:03:09;;;;;;;16.67;10.98;;;6.40;99.90;;;;;;5038905;28;20344;-93
2023/04/18 02:05:36;;;;;;;16.23;10.85;;;6.40;99.90;;;;;;5019753;28;20124;-95
2023/04/18 02:08:02;;;;;;;16.40;11.68;;;6.40;99.90;;;;;;5020141;28;20116;-94
2023/04/18 02:10:27;;;;;;;15.60;11.18;;;6.40;99.90;;;;;;5016550;28;20104;-93
2023/04/18 02:12:53;;;;;;;13.93;10.75;;;6.50;99.90;;;;;;5019024;28;20577;-94
2023/04/18 02:15:19;;;;;;;18.00;11.48;;;6.50;99.90;;;;;;5021289;28;20387;-94
2023/04/18 02:17:47;;;;;;;14.25;10.20;;;6.60;99.90;;;;;;5023562;28;20124;-94
2023/04/18 02:20:14;;;;;;;16.63;11.68;;;6.60;99.90;;;;;;5020139;28;20399;-93
2023/04/18 02:22:40;;;;;;;17.70;11.13;;;6.60;99.90;;;;;;5019823;28;20060;-94
2023/04/18 02:25:06;;;;;;;16.65;10.45;;;6.70;99.90;;;;;;5023401;28;20033;-94
2023/04/18 02:27:31;;;;;;;14.88;10.40;;;6.70;99.90;;;;;;5017357;28;20033;-93
2023/04/18 02:29:57;;;;;;;17.50;10.10;;;6.70;99.90;;;;;;5043031;28;20145;-94
2023/04/18 02:32:23;;;;;;;12.82;9.45;;;6.80;99.90;;;;;;5020637;28;20037;-94
2023/04/18 02:34:54;;;;;;;14.73;10.15;;;6.80;99.90;;;;;;5035046;28;20087;-94
2023/04/18 02:37:20;;;;;;;13.05;9.88;;;6.90;99.90;;;;;;5026082;28;20049;-94
2023/04/18 02:39:46;;;;;;;12.60;9.52;;;6.90;99.90;;;;;;5057754;28;20037;-95
2023/04/18 02:42:12;;;;;;;12.15;8.88;;;6.90;99.90;;;;;;5021595;28;20136;-95
2023/04/18 02:44:37;;;;;;;12.60;8.77;;;6.90;99.90;;;;;;5020339;28;20107;-93
2023/04/18 02:47:03;;;;;;;11.10;9.00;;;7.00;99.90;;;;;;5020321;28;20080;-95
2023/04/18 02:49:31;;;;;;;13.68;8.70;;;7.00;99.90;;;;;;5020146;28;20039;-94
2023/04/18 02:51:57;;;;;;;10.38;8.10;;;7.00;99.90;;;;;;5025315;28;20136;-94
2023/04/18 02:54:23;;;;;;;12.18;9.10;;;7.10;99.90;;;;;;5025196;28;20137;-93
2023/04/18 02:56:52;;;;;;;11.10;8.05;;;7.10;99.90;;;;;;5025343;28;20040;-94
2023/04/18 02:59:18;;;;;;;13.63;8.50;;;7.10;99.90;;;;;;5052969;28;20042;-95
2023/04/18 03:01:43;;;;;;;12.32;8.18;;;7.10;99.90;;;;;;5022466;28;20095;-94
2023/04/18 03:04:12;;;;;;;11.15;8.23;;;7.10;99.90;;;;;;5042399;28;20115;-94
2023/04/18 03:06:38;;;;;;;12.52;8.55;;;7.10;99.90;;;;;;5024021;28;20045;-94
2023/04/18 03:09:06;;;;;;;12.07;8.57;;;7.10;99.90;;;;;;5021365;28;20087;-93
2023/04/18 03:11:32;;;;;;;12.13;8.73;;;7.20;99.90;;;;;;5038998;28;20077;-93
2023/04/18 03:13:58;;;;;;;10.32;8.02;;;7.10;99.90;;;;;;5020027;28;20088;-93
2023/04/18 03:16:23;;;;;;;10.73;7.97;;;7.10;99.90;;;;;;5022328;28;20360;-94
2023/04/18 03:18:49;;;;;;;10.68;7.65;;;7.10;99.90;;;;;;5042479;28;20056;-94
2023/04/18 03:21:18;;;;;;;11.68;7.50;;;7.10;99.90;;;;;;5021240;28;20044;-94
2023/04/18 03:23:44;;;;;;;12.27;7.90;;;7.10;99.90;;;;;;5019615;28;20213;-93
2023/04/18 03:26:11;;;;;;;10.65;7.75;;;7.10;99.90;;;;;;5019012;28;20045;-94
2023/04/18 03:28:37;;;;;;;12.05;8.10;;;7.10;99.90;;;;;;5039489;28;20231;-94
2023/04/18 03:31:03;;;;;;;9.77;7.15;;;7.10;99.90;;;;;;5036817;28;20039;-95
2023/04/18 03:33:31;;;;;;;11.38;7.85;;;7.00;99.90;;;;;;5020225;28;20040;-93
2023/04/18 03:35:58;;;;;;;9.48;7.25;;;7.00;99.90;;;;;;5045010;28;20045;-95
2023/04/18 03:38:23;;;;;;;11.45;7.53;;;7.10;99.90;;;;;;5026150;28;20480;-95
2023/04/18 03:40:49;;;;;;;11.10;6.82;;;7.10;99.90;;;;;;5029499;28;20041;-94
2023/04/18 03:43:15;;;;;;;10.30;7.30;;;7.00;99.90;;;;;;5021532;28;20060;-94
2023/04/18 03:45:42;;;;;;;10.82;6.80;;;7.00;99.90;;;;;;5023861;28;20120;-94
2023/04/18 03:48:08;;;;;;;9.98;7.35;;;7.10;99.90;;;;;;5036135;28;20064;-94
2023/04/18 03:50:34;;;;;;;12.15;7.15;;;7.10;99.90;;;;;;5040761;28;20588;-95
2023/04/18 03:53:00;;;;;;;12.57;7.30;;;7.10;99.90;;;;;;5027524;28;20037;-94
2023/04/18 03:55:25;;;;;;;9.30;6.88;;;7.10;99.90;;;;;;5041977;28;20489;-93
2023/04/18 03:57:51;;;;;;;9.68;6.43;;;7.10;99.90;;;;;;5023885;28;20488;-93
2023/04/18 04:00:17;;;;;;;8.20;6.03;;;7.10;99.90;;;;;;5024643;28;20520;-94
2023/04/18 04:02:43;;;;;;;9.00;6.32;;;7.20;99.90;;;;;;5019869;28;20375;-93
2023/04/18 04:05:08;;;;;;;8.57;6.32;;;7.20;99.90;;;;;;5023419;28;20045;-94
2023/04/18 04:07:34;;;;;;;7.65;6.03;;;7.20;99.90;;;;;;5039746;28;20046;-93
2023/04/18 04:10:00;;;;;;;8.65;6.20;;;7.20;99.90;;;;;;5039085;28;20037;-93
2023/04/18 04:12:26;;;;;;;9.38;6.28;;;7.20;99.90;;;;;;5026060;28;20519;-93
2023/04/18 04:14:52;;;;;;;9.07;6.32;;;7.30;99.90;;;;;;5039867;28;20562;-93
2023/04/18 04:17:18;;;;;;;9.60;6.18;;;7.30;99.90;;;;;;5018839;28;20044;-94
2023/04/18 04:19:43;;;;;;;8.30;6.03;;;7.30;99.90;;;;;;5023752;28;20040;-93
2023/04/18 04:22:10;;;;;;;10.05;6.75;;;7.30;99.90;;;;;;5021487;28;20090;-93
2023/04/18 04:24:37;;;;;;;8.70;6.57;;;7.30;99.90;;;;;;5040303;28;20045;-94
2023/04/18 04:27:04;;;;;;;10.30;6.03;;;7.30;99.90;;;;;;5020576;28;20477;-94
2023/04/18 04:29:34;;;;;;;10.05;7.10;;;7.30;99.90;;;;;;5025067;28;20114;-92
2023/04/18 04:31:59;;;;;;;9.02;6.20;;;7.30;99.90;;;;;;5037220;28;20049;-92
2023/04/18 04:34:25;;;;;;;8.55;5.85;;;7.30;99.90;;;;;;5036788;28;20053;-93
2023/04/18 04:36:52;;;;;;;8.52;6.10;;;7.30;99.90;;;;;;5042658;28;20224;-93
2023/04/18 04:39:18;;;;;;;8.98;6.65;;;7.30;99.90;;;;;;5023361;28;20040;-94
2023/04/18 04:41:45;;;;;;;7.57;5.78;;;7.30;99.90;;;;;;5020363;28;20040;-92
2023/04/18 04:44:12;;;;;;;9.75;6.50;;;7.30;99.90;;;;;;5042046;28;20125;-94
2023/04/18 04:46:39;;;;;;;8.45;6.70;;;7.20;99.90;;;;;;5036464;28;20052;-93
2023/04/18 04:49:05;;;;;;;9.73;7.00;;;7.20;99.90;;;;;;5021116;28;20041;-94
2023/04/18 04:51:31;;;;;;;10.32;7.22;;;7.20;99.90;;;;;;5025267;28;20044;-93
2023/04/18 04:53:57;;;;;;;8.48;6.40;;;7.20;99.90;;;;;;5020696;28;20044;-93
2023/04/18 04:56:23;;;;;;;10.18;6.80;;;7.20;99.90;;;;;;5037061;28;20048;-93
2023/04/18 04:58:52;;;;;;;11.00;7.18;;;7.20;99.90;;;;;;5041167;28;20475;-92
2023/04/18 05:01:18;;;;;;;9.95;7.65;;;7.20;99.90;;;;;;5024807;28;20123;-94
2023/04/18 05:03:44;;;;;;;11.07;7.90;;;7.20;99.90;;;;;;5022034;28;21356;-94
2023/04/18 05:06:10;;;;;;;9.68;7.68;;;7.30;99.90;;;;;;5039044;28;20476;-95
2023/04/18 05:08:35;;;;;;;11.55;7.93;;;7.30;99.90;;;;;;5022565;28;20048;-93
2023/04/18 05:11:02;;;;;;;10.45;8.35;;;7.30;99.90;;;;;;5023528;28;20123;-94
2023/04/18 05:13:28;;;;;;;11.70;8.45;;;7.40;99.90;;;;;;5020903;28;20068;-94
2023/04/18 05:15:58;;;;;;;12.30;8.48;;;7.30;99.90;;;;;;5023585;28;20156;-94
2023/04/18 05:18:23;;;;;;;13.60;8.38;;;7.30;99.90;;;;;;5023132;28;20073;-94
2023/04/18 05:20:49;;;;;;;13.85;8.43;;;7.30;99.90;;;;;;5036339;28;20552;-94
2023/04/18 05:23:15;;;;;;;10.77;8.20;;;7.30;99.90;;;;;;5025379;28;20455;-93
2023/04/18 05:25:41;;;;;;;13.43;8.95;;;7.40;99.90;;;;;;5039450;28;20079;-93
2023/04/18 05:28:07;;;;;;;10.90;8.32;;;7.40;99.90;;;;;;5039245;28;20033;-93
2023/04/18 05:30:36;;;;;;;13.10;9.30;;;7.50;99.90;;;;;;5042366;28;20041;-94
2023/04/18 05:33:02;;;;;;;13.35;9.27;;;7.50;99.90;;;;;;5023032;28;20087;-94
2023/04/18 05:35:27;;;;;;;14.27;8.95;;;7.50;99.90;;;;;;5024176;28;20044;-94
2023/04/18 05:37:53;;;;;;;12.80;9.57;;;7.50;99.90;;;;;;5020181;28;20471;-93
2023/04/18 05:40:19;;;;;;;14.57;9.95;;;7.60;99.90;;;;;;5021041;28;20041;-93
2023/04/18 05:42:44;;;;;;;13.15;9.35;;;7.60;99.90;;;;;;5033774;28;20567;-93
2023/04/18 05:45:10;;;;;;;14.07;10.63;;;7.70;99.90;;;;;;5022807;28;20047;-93
2023/04/18 05:47:36;;;;;;;14.02;10.05;;;7.70;99.90;;;;;;5033773;28;20049;-94
2023/04/18 05:50:02;;;;;;;13.10;9.60;;;7.70;99.90;;;;;;5035651;28;20223;-94
2023/04/18 05:52:28;;;;;;;15.23;10.00;;;7.70;99.90;;;;;;5023744;28;20046;-93
2023/04/18 05:54:53;;;;;;;12.88;10.15;;;7.80;99.90;;;;;;5019066;28;20096;-94
2023/04/18 05:57:19;;;;;;;13.80;9.85;;;7.80;99.90;;;;;;5023867;28;20063;-93
2023/04/18 05:59:45;;;;;;;14.20;10.13;;;7.90;99.90;;;;;;5039778;28;20048;-93
2023/04/18 06:02:12;;;;;;;14.57;10.88;;;7.90;99.90;;;;;;5020540;28;20040;-93
2023/04/18 06:04:41;;;;;;;13.50;10.07;;;7.90;99.90;;;;;;5022443;28;20045;-94
2023/04/18 06:07:08;;;;;;;14.38;10.18;;;8.00;99.90;;;;;;5021678;28;20033;-93
2023/04/18 06:09:36;;;;;;;13.85;10.18;;;8.10;99.90;;;;;;5039682;28;20151;-94
2023/04/18 06:12:05;;;;;;;11.98;9.68;;;8.20;99.90;;;;;;5017387;28;20135;-93
2023/04/18 06:14:31;;;;;;;13.57;10.07;;;8.40;99.90;;;;;;5031026;28;20111;-94
2023/04/18 06:17:00;;;;;;;15.77;9.95;;;8.50;99.90;;;;;;5018690;28;20033;-93
2023/04/18 06:19:25;;;;;;;13.18;9.77;;;8.40;99.90;;;;;;5019816;28;20214;-94
2023/04/18 06:21:52;;;;;;;12.95;9.80;;;8.30;99.90;;;;;;5020916;28;20195;-93
2023/04/18 06:24:18;;;;;;;13.90;10.13;;;8.10;99.90;;;;;;5021986;28;20045;-93
2023/04/18 06:26:43;;;;;;;12.60;8.80;;;8.10;99.90;;;;;;5021973;28;20040;-94
2023/04/18 06:29:09;;;;;;;12.60;8.88;;;8.00;99.90;;;;;;5024525;28;20048;-93
2023/04/18 06:31:34;;;;;;;13.98;9.82;;;8.00;99.90;;;;;;5025865;28;20045;-93
2023/04/18 06:34:00;;;;;;;12.68;9.23;;;8.00;99.90;;;;;;5041818;28;20041;-94
2023/04/18 06:36:26;;;;;;;13.88;9.05;;;7.90;99.90;;;;;;5024894;28;20048;-94
2023/04/18 06:38:52;;;;;;;15.50;9.50;;;7.80;99.90;;;;;;5026972;28;20037;-93
2023/04/18 06:41:17;;;;;;;15.65;9.93;;;7.80;99.90;;;;;;5039571;28;20040;-93
2023/04/18 06:43:43;;;;;;;14.77;9.07;;;7.90;99.90;;;;;;5020219;28;20103;-93
2023/04/18 06:46:08;;;;;;;12.18;9.40;;;7.80;99.90;;;;;;5054557;28;20044;-93
2023/04/18 06:48:34;;;;;;;13.07;9.40;;;7.90;1.00;;;;;;5043155;28;20136;-93
2023/04/18 06:51:00;;;;;;;12.27;9.43;;;7.90;1.00;;;;;;5025056;28;20033;-92
2023/04/18 06:53:25;;;;;;;12.90;8.85;;;7.90;1.00;;;;;;5026429;28;20126;-93
2023/04/18 06:55:51;;;;;;;13.68;9.48;;;8.20;1.00;;;;;;5024589;28;20079;-93
2023/04/18 06:58:17;;;;;;;12.15;9.40;;;8.30;12.50;;;;;;5039637;28;20055;-93
2023/04/18 07:00:43;;;;;;;14.75;10.10;;;8.40;24.60;;;;;;5021975;28;20177;-94
2023/04/18 07:03:11;;;;;;;13.95;9.65;;;8.40;1.00;;;;;;5020308;28;20052;-93
2023/04/18 07:05:38;;;;;;;14.77;9.48;;;8.50;99.90;;;;;;5039958;28;20076;-93
2023/04/18 07:08:04;;;;;;;15.68;9.95;;;8.60;99.90;;;;;;5022712;28;20403;-95
2023/04/18 07:10:30;;;;;;;14.00;9.32;;;8.50;99.90;;;;;;5037319;28;20041;-93
2023/04/18 07:12:56;;;;;;;13.23;9.45;;;8.60;1.00;;;;;;5023026;28;20049;-93
2023/04/18 07:15:22;;;;;;;13.10;9.40;;;8.70;99.90;;;;;;5019747;28;20044;-93
2023/04/18 07:17:48;;;;;;;11.40;9.30;;;8.80;99.90;;;;;;5022287;28;20071;-93
2023/04/18 07:20:17;;;;;;;12.48;9.45;;;8.80;27.70;;;;;;5054398;28;20100;-94
2023/04/18 07:22:42;;;;;;;11.55;9.25;;;8.90;1.00;;;;;;5039687;28;20144;-93
2023/04/18 07:25:08;;;;;;;15.18;9.77;;;8.90;99.90;;;;;;5027676;28;20075;-93
2023/04/18 07:27:35;;;;;;;12.38;9.18;;;9.00;99.90;;;;;;5024186;28;20059;-94
2023/04/18 07:30:02;;;;;;;11.20;8.73;;;9.10;99.90;;;;;;5021218;28;20039;-94
2023/04/18 07:32:28;;;;;;;12.32;9.30;;;9.20;99.90;;;;;;5035671;28;20535;-92
2023/04/18 07:34:54;;;;;;;12.77;9.30;;;9.20;1.00;;;;;;5025402;28;20052;-93
2023/04/18 07:37:20;;;;;;;12.68;9.07;;;9.20;99.90;;;;;;5020917;28;20041;-94
2023/04/18 07:39:47;;;;;;;13.43;8.57;;;9.30;35.20;;;;;;5037740;28;20036;-94
2023/04/18 07:42:12;;;;;;;13.32;9.35;;;9.30;1.00;;;;;;5025610;28;20583;-94
2023/04/18 07:44:38;;;;;;;14.88;9.65;;;9.40;15.80;;;;;;5022545;28;20124;-95
2023/04/18 07:47:10;;;;;;;12.77;9.13;;;9.30;99.90;;;;;;5019456;28;20373;-93
2023/04/18 07:49:36;;;;;;;11.88;9.02;;;9.40;1.00;;;;;;5023121;28;20699;-93
2023/04/18 07:52:03;;;;;;;13.63;9.57;;;9.40;99.90;;;;;;5037822;28;20077;-92
2023/04/18 07:54:29;;;;;;;13.63;9.50;;;9.60;99.90;;;;;;5038738;28;20079;-93
2023/04/18 07:56:54;;;;;;;12.48;8.88;;;9.70;1.00;;;;;;5038431;28;20068;-94
2023/04/18 07:59:20;;;;;;;12.70;8.60;;;10.00;99.90;;;;;;5018522;28;20501;-94
2023/04/18 08:01:49;;;;;;;12.57;9.05;;;10.00;99.90;;;;;;5038704;28;20100;-94
2023/04/18 08:04:14;;;;;;;14.57;9.30;;;10.10;1.00;;;;;;5038378;28;20480;-93
2023/04/18 08:06:40;;;;;;;15.25;9.65;;;10.30;92.60;;;;;;5024179;28;20041;-94
2023/04/18 08:09:06;;;;;;;13.15;9.13;;;10.50;99.90;;;;;;5019485;28;20041;-93
2023/04/18 08:11:32;;;;;;;12.70;8.48;;;10.30;99.90;;;;;;5018621;28;20073;-94
2023/04/18 08:13:58;;;;;;;11.23;9.05;;;10.50;99.90;;;;;;5038265;28;20342;-94
2023/04/18 08:16:24;;;;;;;13.25;8.93;;;10.70;1.00;;;;;;5027603;28;20204;-93
2023/04/18 08:18:50;;;;;;;11.65;8.80;;;10.70;99.90;;;;;;5037519;28;20049;-94
2023/04/18 08:21:16;;;;;;;14.05;8.43;;;10.70;99.90;;;;;;5021151;28;20039;-94
2023/04/18 08:23:42;;;;;;;12.13;8.52;;;10.70;99.90;;;;;;5021502;28;20072;-93
2023/04/18 08:26:08;;;;;;;12.52;8.90;;;10.80;52.90;;;;;;5019212;28;20073;-92
2023/04/18 08:28:34;;;;;;;11.95;8.40;;;10.90;99.90;;;;;;5026537;28;20029;-94
2023/04/18 08:30:59;;;;;;;13.88;8.82;;;10.80;57.00;;;;;;5020177;28;20039;-93
2023/04/18 08:33:26;;;;;;;11.50;8.55;;;10.90;1.00;;;;;;5023574;28;20473;-93
2023/04/18 08:35:51;;;;;;;12.95;8.82;;;11.00;99.90;;;;;;5025757;28;20066;-93
2023/04/18 08:38:18;;;;;;;17.08;8.77;;;11.20;92.90;;;;;;5023652;28;20060;-94
2023/04/18 08:40:44;;;;;;;10.35;8.75;;;11.30;25.80;;;;;;5037593;28;20469;-93
2023/04/18 08:43:14;;;;;;;14.55;9.05;;;11.50;99.90;;;;;;5021884;28;20287;-93
2023/04/18 08:45:42;;;;;;;14.60;8.02;;;11.60;99.90;;;;;;5028080;28;20052;-93
2023/04/18 08:48:12;;;;;;;10.55;7.80;;;11.80;94.00;;;;;;5019398;28;20136;-94
2023/04/18 08:50:39;;;;;;;10.40;7.88;;;11.70;1.00;;;;;;5034952;28;20053;-93
2023/04/18 08:53:05;;;;;;;9.55;8.38;;;11.70;99.90;;;;;;5040641;28;20095;-94
2023/04/18 08:55:32;;;;;;;10.50;7.75;;;11.90;1.00;;;;;;5020576;28;20036;-93
2023/04/18 08:57:58;;;;;;;10.05;7.68;;;12.00;1.00;;;;;;5021797;28;20096;-93
2023/04/18 09:00:26;;;;;;;11.10;7.22;;;12.10;99.90;;;;;;5023694;28;20041;-94
2023/04/18 09:02:57;;;;;;;7.88;7.05;;;12.00;99.90;;;;;;5025445;28;20052;-94
2023/04/18 09:05:25;;;;;;;9.15;7.38;;;12.20;99.90;;;;;;5022903;28;20041;-92
2023/04/18 09:07:55;;;;;;;10.85;7.50;;;12.30;99.90;;;;;;5028223;28;20084;-93
2023/04/18 09:10:39;;;;;;;10.40;7.40;;;12.20;99.90;;;;;;5040372;28;20054;-93
2023/04/18 09:13:05;;;;;;;13.35;7.55;;;12.20;99.90;;;;;;5020854;28;20041;-94
2023/04/18 09:15:30;;;;;;;10.48;8.02;;;12.30;99.90;;;;;;5022146;28;20103;-93
2023/04/18 09:17:58;;;;;;;10.10;8.00;;;12.40;99.90;;;;;;5019652;28;20033;-93
2023/04/18 09:20:46;;;;;;;11.88;8.18;;;12.40;99.90;;;;;;5021247;28;20041;-94
2023/04/18 09:23:22;;;;;;;9.68;7.55;;;12.50;99.80;;;;;;5036476;28;20401;-94
2023/04/18 09:25:49;;;;;;;11.88;8.30;;;12.60;1.00;;;;;;5019833;28;20041;-95
2023/04/18 09:28:28;;;;;;;10.60;7.50;;;12.60;96.90;;;;;;5032285;28;20394;-94
2023/04/18 09:31:08;;;;;;;9.82;7.50;;;12.70;1.00;;;;;;5017200;28;20186;-94
2023/04/18 09:33:35;;;;;;;8.90;7.32;;;12.80;11.40;;;;;;5018259;28;20304;-95
2023/04/18 09:36:20;;;;;;;8.85;7.03;;;13.00;97.40;;;;;;5041124;28;20043;-94
2023/04/18 09:38:46;;;;;;;;;;;12.90;1.00;;;;;;5022144;28;20048;-94
2023/04/18 09:41:16;;;;;;;8.35;6.82;;;13.00;99.90;;;;;;5021726;28;19921;-93
2023/04/18 09:43:45;;;;;;;9.10;7.28;;;13.10;52.10;;;;;;5052780;28;20049;-93
2023/04/18 09:46:12;;;;;;;11.27;7.53;;;13.20;1.00;;;;;;5040737;28;20439;-95
2023/04/18 09:48:47;;;;;;;9.55;7.35;;;13.40;99.90;;;;;;5033886;28;20041;-94
2023/04/18 09:51:15;;;;;;;9.68;7.40;;;13.20;1.00;;;;;;5039554;28;20174;-93
2023/04/18 09:53:46;;;;;;;9.77;7.40;;;13.20;99.90;;;;;;5017450;28;20087;-94
2023/04/18 09:56:18;;;;;;;10.43;7.18;;;13.20;99.90;;;;;;5016956;28;20049;-94
2023/04/18 09:58:48;;;;;;;9.52;7.45;;;13.20;99.90;;;;;;5043638;28;20041;-94
2023/04/18 10:01:17;;;;;;;10.93;8.00;;;13.30;99.90;;;;;;5022786;28;20044;-93
2023/04/18 10:03:48;;;;;;;11.35;7.85;;;13.40;99.90;;;;;;5016076;28;20694;-93
2023/04/18 10:06:16;;;;;;;11.75;7.80;;;13.60;99.90;;;;;;5019583;28;20044;-95
2023/04/18 10:08:46;;;;;;;9.68;7.35;;;13.40;99.90;;;;;;5023590;28;20126;-94
2023/04/18 10:11:12;;;;;;;9.07;7.68;;;13.70;99.90;;;;;;5018645;28;20060;-94
2023/04/18 10:13:41;;;;;;;8.95;7.82;;;13.50;99.90;;;;;;5014304;28;20067;-93
2023/04/18 10:16:08;;;;;;;10.15;7.38;;;13.80;99.90;;;;;;5038807;28;20044;-94
2023/04/18 10:18:37;;;;;;;9.10;7.75;;;13.70;99.90;;;;;;5017773;28;20096;-94
2023/04/18 10:21:03;;;;;;;13.18;7.75;;;13.70;99.90;;;;;;5035150;28;20073;-94
2023/04/18 10:23:34;;;;;;;11.20;7.40;;;13.90;99.90;;;;;;5037673;28;20044;-94
2023/04/18 10:26:02;;;;;;;9.63;7.63;;;13.90;99.90;;;;;;5037855;28;20045;-94
2023/04/18 10:28:51;;;;;;;10.60;7.95;;;13.80;99.90;;;;;;5023936;28;20029;-93
2023/04/18 10:31:18;;;;;;;9.65;7.88;;;14.20;99.90;;;;;;5035999;28;20037;-94
2023/04/18 10:33:48;;;;;;;10.40;6.75;;;14.50;99.90;;;;;;5038545;28;20099;-94
2023/04/18 10:36:21;;;;;;;8.65;7.25;;;14.20;99.90;;;;;;5017219;28;20059;-94
2023/04/18 10:38:52;;;;;;;9.65;7.72;;;14.20;99.90;;;;;;5033250;28;20132;-93
2023/04/18 10:41:22;;;;;;;10.77;7.25;;;14.40;99.90;;;;;;5014834;28;20339;-93
2023/04/18 10:44:13;;;;;;;9.30;7.90;;;14.60;99.90;;;;;;5017535;28;20048;-93
2023/04/18 10:46:52;;;;;;;12.63;8.57;;;14.70;99.90;;;;;;5024103;28;20049;-93
2023/04/18 10:49:22;;;;;;;10.13;8.32;;;14.50;14.70;;;;;;5021637;28;20477;-93
2023/04/18 10:51:53;;;;;;;9.85;7.30;;;14.40;60.60;;;;;;5020231;28;20044;-94
2023/04/18 10:54:36;;;;;;;8.65;7.68;;;14.50;99.90;;;;;;5036412;28;20049;-93
2023/04/18 10:57:03;;;;;;;10.13;7.22;;;14.20;1.00;;;;;;5020226;28;20119;-95
2023/04/18 10:59:31;;;;;;;9.32;6.85;;;14.40;1.00;;;;;;5022899;28;20041;-94
2023/04/18 11:02:05;;;;;;;10.57;7.20;;;14.70;22.60;;;;;;5043807;28;20040;-92
2023/04/18 11:04:30;;;;;;;9.50;7.05;;;14.80;96.30;;;;;;5016963;28;20038;-93
2023/04/18 11:06:57;;;;;;;7.57;6.70;;;15.00;76.50;;;;;;5035316;28;20349;-93
2023/04/18 11:09:24;;;;;;;8.18;6.97;;;15.10;99.90;;;;;;5034497;28;20481;-92
2023/04/18 11:12:04;;;;;;;10.30;7.32;;;15.00;18.30;;;;;;5018502;28;20044;-94
2023/04/18 11:14:43;;;;;;;9.57;7.28;;;15.30;99.90;;;;;;5021876;28;20077;-93
2023/04/18 11:17:23;;;;;;;8.38;7.10;;;15.10;4.50;;;;;;5021725;28;20076;-93
2023/04/18 11:19:50;;;;;;;10.40;7.28;;;15.30;99.90;;;;;;5026639;28;20052;-93
2023/04/18 11:22:17;;;;;;;10.82;7.05;;;15.20;17.40;;;;;;5046070;28;20493;-92
2023/04/18 11:24:43;;;;;;;9.90;7.18;;;15.10;1.00;;;;;;5037592;28;20049;-94
2023/04/18 11:27:10;;;;;;;9.70;7.28;;;15.40;51.30;;;;;;5022810;28;20104;-94
2023/04/18 11:29:36;;;;;;;9.32;7.22;;;15.20;1.00;;;;;;5029344;28;20523;-93
2023/04/18 11:32:06;;;;;;;9.75;7.03;;;15.50;42.90;;;;;;5022694;28;20186;-93
2023/04/18 11:34:32;;;;;;;8.05;6.25;;;15.40;1.00;;;;;;5024176;28;20048;-95
2023/04/18 11:37:04;;;;;;;8.02;7.00;;;15.40;1.00;;;;;;5022672;28;20488;-94
2023/04/18 11:39:42;;;;;;;8.00;6.75;;;15.60;1.00;;;;;;5022830;28;20956;-93
2023/04/18 11:42:08;;;;;;;10.18;7.10;;;15.50;1.00;;;;;;5040806;28;20132;-93
2023/04/18 11:44:38;;;;;;;10.75;7.38;;;15.90;1.00;;;;;;5025491;28;20045;-93
2023/04/18 11:47:24;;;;;;;9.05;7.90;;;16.00;1.00;;;;;;5022536;28;20394;-93
2023/04/18 11:49:57;;;;;;;10.43;8.00;;;16.20;1.00;;;;;;5021483;28;20049;-93
2023/04/18 11:52:23;;;;;;;9.10;7.85;;;16.20;1.00;;;;;;5026395;28;20052;-93
2023/04/18 11:54:52;;;;;;;10.27;7.55;;;16.30;1.00;;;;;;5038100;28;20202;-92
2023/04/18 11:57:28;;;;;;;9.65;7.80;;;16.40;1.00;;;;;;5025878;28;20048;-93
2023/04/18 11:59:59;;;;;;;8.80;7.60;;;16.10;1.00;;;;;;5036554;28;20400;-94
2023/04/18 12:02:44;;;;;;;8.48;7.57;;;16.30;1.00;;;;;;5040691;28;20037;-92
2023/04/18 12:05:10;;;;;;;10.57;7.78;;;16.70;1.00;;;;;;5020295;28;20047;-92
2023/04/18 12:07:41;;;;;;;8.15;6.88;;;16.90;1.00;;;;;;5020108;28;20029;-94
2023/04/18 12:10:09;;;;;;;8.57;7.07;;;16.80;1.00;;;;;;5058843;28;20033;-94
2023/04/18 12:12:35;;;;;;;8.05;6.57;;;16.70;1.00;;;;;;5024645;28;20068;-92
2023/04/18 12:15:12;;;;;;;8.02;6.60;;;16.90;1.00;;;;;;5020721;28;20037;-92
2023/04/18 12:17:38;;;;;;;7.53;6.10;;;16.90;1.00;;;;;;5036483;28;20446;-93
2023/04/18 12:20:08;;;;;;;7.38;5.50;;;16.40;99.90;;;;;;5020999;28;20071;-92
2023/04/18 12:22:38;;;;;;;7.78;5.40;;;16.30;99.90;;;;;;5035089;28;20037;-91
2023/04/18 12:25:21;;;;;;;6.70;5.45;;;16.70;99.90;;;;;;5021264;28;20094;-92
2023/04/18 12:28:11;;;;;;;6.97;5.75;;;16.80;99.90;;;;;;5058014;28;20488;-93
2023/04/18 12:30:40;;;;;;;9.60;5.57;;;16.60;99.90;;;;;;5034709;28;20528;-92
2023/04/18 12:33:08;;;;;;;6.75;5.55;;;17.00;99.90;;;;;;5022638;28;20041;-92
2023/04/18 12:35:34;;;;;;;8.70;6.25;;;16.90;99.90;;;;;;5022714;28;20542;-92
2023/04/18 12:38:01;;;;;;;8.77;5.40;;;17.10;99.90;;;;;;5036465;28;20037;-93
2023/04/18 12:40:28;;;;;;;7.05;5.70;;;17.00;99.90;;;;;;5022288;28;20041;-92
2023/04/18 12:42:55;;;;;;;5.90;5.30;;;17.20;99.90;;;;;;5016168;28;20062;-91
2023/04/18 12:45:22;;;;;;;5.88;4.57;;;17.10;99.90;;;;;;5022705;28;20037;-92
2023/04/18 12:47:49;;;;;;;5.90;4.80;;;17.50;99.90;;;;;;5023366;28;20265;-92